Time;durP1;ratioP1;P1;durP2;ratioP2;P2;SDS_P1;SDS_P2;PMS_P1;PMS_P2;Temp;Humidity;BMP_temperature;BMP_pressure;BME280_temperature;BME280_humidity;BME280_pressure;Samples;Min_cycle;Max_cycle;Signal;HPM_P1;HPM_P2
2022/10/23 00:00:59;;;;;;;10.55;6.55;;;11.50;99.90;;;;;;5070729;28;20036;-68
2022/10/23 00:03:25;;;;;;;10.82;5.95;;;11.40;99.90;;;;;;5070768;28;20040;-68
2022/10/23 00:05:51;;;;;;;10.18;6.20;;;11.40;99.90;;;;;;5071600;28;20033;-68
2022/10/23 00:08:16;;;;;;;10.95;6.20;;;11.40;99.90;;;;;;5071771;28;20111;-68
2022/10/23 00:10:42;;;;;;;9.15;6.57;;;11.40;99.90;;;;;;5070043;28;20401;-68
2022/10/23 00:13:09;;;;;;;12.60;6.82;;;11.40;99.90;;;;;;5071919;28;20040;-68
2022/10/23 00:15:35;;;;;;;10.32;6.65;;;11.40;99.90;;;;;;5070030;28;20048;-68
2022/10/23 00:18:01;;;;;;;9.15;7.10;;;11.40;99.90;;;;;;5071682;28;20115;-68
2022/10/23 00:20:27;;;;;;;11.27;8.07;;;11.30;99.90;;;;;;5070377;28;20067;-68
2022/10/23 00:22:53;;;;;;;14.30;7.05;;;11.30;99.90;;;;;;5070361;28;20033;-68
2022/10/23 00:25:19;;;;;;;13.02;7.07;;;11.30;99.90;;;;;;5071343;28;20071;-68
2022/10/23 00:27:45;;;;;;;13.15;7.75;;;11.30;99.90;;;;;;5070143;28;20041;-68
2022/10/23 00:30:11;;;;;;;13.88;7.45;;;11.30;99.90;;;;;;5070370;28;20043;-68
2022/10/23 00:32:36;;;;;;;13.40;7.40;;;11.30;99.90;;;;;;5073058;28;20501;-68
2022/10/23 00:35:02;;;;;;;10.15;7.55;;;11.30;99.90;;;;;;5075347;28;20051;-68
2022/10/23 00:37:27;;;;;;;15.02;6.95;;;11.30;99.90;;;;;;5075399;28;20052;-68
2022/10/23 00:39:53;;;;;;;11.18;6.93;;;11.30;99.90;;;;;;5075422;28;20037;-68
2022/10/23 00:42:20;;;;;;;11.82;7.07;;;11.20;99.90;;;;;;5075257;28;20072;-68
2022/10/23 00:44:45;;;;;;;11.80;7.35;;;11.20;99.90;;;;;;5073854;28;20040;-68
2022/10/23 00:47:12;;;;;;;10.00;6.63;;;11.20;99.90;;;;;;5075179;28;20098;-68
2022/10/23 00:49:38;;;;;;;9.80;6.68;;;11.20;99.90;;;;;;5074025;28;20045;-67
2022/10/23 00:52:07;;;;;;;12.40;7.28;;;11.20;99.90;;;;;;5075177;28;20144;-68
2022/10/23 00:54:35;;;;;;;12.30;7.07;;;11.20;99.90;;;;;;5073580;28;20036;-68
2022/10/23 00:57:04;;;;;;;10.88;7.07;;;11.20;99.90;;;;;;5073991;28;20401;-68
2022/10/23 00:59:30;;;;;;;12.43;6.60;;;11.20;99.90;;;;;;5073516;28;20043;-68
2022/10/23 01:01:57;;;;;;;14.52;6.95;;;11.10;99.90;;;;;;5075119;28;20090;-68
2022/10/23 01:04:23;;;;;;;13.93;7.50;;;11.10;99.90;;;;;;5074847;28;20036;-68
2022/10/23 01:07:07;;;;;;;11.00;7.30;;;11.10;99.90;;;;;;5074940;28;20640;-68
2022/10/23 01:09:47;;;;;;;11.13;7.60;;;11.10;99.90;;;;;;5075008;28;20040;-68
2022/10/23 01:12:32;;;;;;;14.85;7.72;;;11.10;99.90;;;;;;5073789;28;20044;-68
2022/10/23 01:15:01;;;;;;;13.10;6.75;;;11.10;99.90;;;;;;5073920;28;20032;-68
2022/10/23 01:17:26;;;;;;;28.08;6.70;;;11.10;99.90;;;;;;5074796;28;20431;-68
2022/10/23 01:20:00;;;;;;;9.15;6.57;;;11.00;99.90;;;;;;5073291;28;20040;-68
2022/10/23 01:22:57;;;;;;;11.85;7.05;;;11.00;99.90;;;;;;5074843;28;20045;-68
2022/10/23 01:25:54;;;;;;;8.23;5.82;;;10.90;99.90;;;;;;5072490;28;20033;-68
2022/10/23 01:28:31;;;;;;;13.30;7.03;;;11.00;99.90;;;;;;5074847;28;20033;-68
2022/10/23 01:31:00;;;;;;;13.13;6.63;;;11.00;99.90;;;;;;5074438;28;20045;-68
2022/10/23 01:33:35;;;;;;;9.02;6.75;;;11.00;99.90;;;;;;5074497;28;20501;-68
2022/10/23 01:36:05;;;;;;;9.57;6.35;;;10.90;99.90;;;;;;5072659;28;20043;-68
2022/10/23 01:38:43;;;;;;;11.80;7.15;;;11.00;99.90;;;;;;5074422;28;20087;-68
2022/10/23 01:41:15;;;;;;;10.10;6.65;;;11.00;99.90;;;;;;5074291;28;20429;-68
2022/10/23 01:44:06;;;;;;;10.82;6.65;;;10.90;99.90;;;;;;5073662;28;20040;-68
2022/10/23 01:46:34;;;;;;;9.65;6.30;;;11.00;99.90;;;;;;5073517;28;20050;-68
2022/10/23 01:49:02;;;;;;;9.25;6.15;;;11.00;99.90;;;;;;5090138;28;20485;-68
2022/10/23 01:51:30;;;;;;;8.80;6.55;;;10.80;99.90;;;;;;5074314;28;20051;-68
2022/10/23 01:53:58;;;;;;;10.85;7.03;;;10.90;99.90;;;;;;5073695;28;20041;-68
2022/10/23 01:56:37;;;;;;;13.10;7.25;;;10.90;99.90;;;;;;5072812;28;20037;-68
2022/10/23 01:59:09;;;;;;;12.13;6.10;;;10.90;99.90;;;;;;5073824;28;20501;-68
2022/10/23 02:01:37;;;;;;;12.48;6.72;;;10.90;99.90;;;;;;5074149;28;20424;-68
2022/10/23 02:04:07;;;;;;;11.10;6.78;;;10.90;99.90;;;;;;5072210;28;20041;-68
2022/10/23 02:06:32;;;;;;;15.10;6.55;;;10.90;99.90;;;;;;5073860;28;20041;-68
2022/10/23 02:08:58;;;;;;;13.13;7.03;;;10.90;99.90;;;;;;5073718;28;20037;-68
2022/10/23 02:11:24;;;;;;;9.30;6.53;;;10.90;99.90;;;;;;5073574;28;20040;-68
2022/10/23 02:14:08;;;;;;;10.43;6.85;;;10.90;99.90;;;;;;5073337;28;20043;-68
2022/10/23 02:16:54;;;;;;;9.07;6.53;;;10.90;99.90;;;;;;5072626;28;20086;-68
2022/10/23 02:19:45;;;;;;;11.60;6.25;;;10.80;99.90;;;;;;5073455;28;20079;-68
2022/10/23 02:22:28;;;;;;;18.13;6.80;;;10.80;99.90;;;;;;5072548;28;20128;-68
2022/10/23 02:25:07;;;;;;;10.57;6.78;;;10.80;99.90;;;;;;5071378;28;20566;-68
2022/10/23 02:27:39;;;;;;;11.80;7.95;;;10.80;99.90;;;;;;5073601;28;20090;-68
2022/10/23 02:30:07;;;;;;;12.45;7.20;;;10.80;99.90;;;;;;5073260;28;20500;-68
2022/10/23 02:32:34;;;;;;;13.70;8.23;;;10.90;99.90;;;;;;5073453;28;20040;-68
2022/10/23 02:35:00;;;;;;;9.93;8.13;;;10.90;99.90;;;;;;5071650;28;20059;-68
2022/10/23 02:37:26;;;;;;;9.88;7.25;;;10.90;99.90;;;;;;5073448;28;20083;-68
2022/10/23 02:39:53;;;;;;;11.20;7.18;;;10.90;99.90;;;;;;5073177;28;20076;-68
2022/10/23 02:42:56;;;;;;;9.38;7.20;;;10.90;99.90;;;;;;5073249;28;20037;-68
2022/10/23 02:45:36;;;;;;;;;;;10.90;99.90;;;;;;5073256;28;20036;-68
2022/10/23 02:48:25;;;;;;;13.30;7.40;;;10.80;99.90;;;;;;5073240;28;19916;-68
2022/10/23 02:51:11;;;;;;;10.38;7.22;;;10.80;99.90;;;;;;5071527;28;20044;-68
2022/10/23 02:54:18;;;;;;;11.98;7.70;;;10.90;99.90;;;;;;5073163;28;20044;-68
2022/10/23 02:56:57;;;;;;;11.57;7.78;;;10.80;99.90;;;;;;5070174;28;20048;-68
2022/10/23 02:59:40;;;;;;;14.90;8.05;;;10.80;99.90;;;;;;5070186;28;20048;-68
2022/10/23 03:02:25;;;;;;;16.52;8.32;;;10.80;99.90;;;;;;5070285;28;20075;-68
2022/10/23 03:04:52;;;;;;;18.77;8.52;;;10.80;99.90;;;;;;5070023;28;20040;-68
2022/10/23 03:07:19;;;;;;;12.73;8.15;;;10.80;99.90;;;;;;5053229;28;20040;-68
2022/10/23 03:09:45;;;;;;;14.95;8.15;;;10.90;99.90;;;;;;5070347;28;20052;-68
2022/10/23 03:12:11;;;;;;;12.82;7.97;;;10.90;99.90;;;;;;5053382;28;20139;-68
2022/10/23 03:14:36;;;;;;;10.48;7.90;;;10.90;99.90;;;;;;5053143;28;20131;-68
2022/10/23 03:17:03;;;;;;;12.00;7.88;;;10.90;99.90;;;;;;5070043;28;20493;-68
2022/10/23 03:19:28;;;;;;;14.10;8.82;;;10.90;99.90;;;;;;5053071;28;20055;-68
2022/10/23 03:21:54;;;;;;;13.85;8.15;;;10.90;99.90;;;;;;5070201;28;20493;-68
2022/10/23 03:24:19;;;;;;;12.07;8.18;;;10.90;99.90;;;;;;5069574;28;20075;-68
2022/10/23 03:26:45;;;;;;;12.32;8.23;;;10.90;99.90;;;;;;5069849;28;20044;-68
2022/10/23 03:29:10;;;;;;;17.00;8.00;;;10.90;99.90;;;;;;5069790;28;20519;-68
2022/10/23 03:31:36;;;;;;;11.02;7.72;;;10.90;99.90;;;;;;5070372;28;20053;-68
2022/10/23 03:34:01;;;;;;;13.80;8.52;;;10.80;99.90;;;;;;5071792;28;20531;-68
2022/10/23 03:36:27;;;;;;;10.88;8.05;;;10.90;99.90;;;;;;5070965;28;20090;-68
2022/10/23 03:38:52;;;;;;;12.55;8.10;;;10.80;99.90;;;;;;5072397;28;20040;-68
2022/10/23 03:41:18;;;;;;;13.07;8.32;;;10.80;99.90;;;;;;5072054;28;20056;-68
2022/10/23 03:43:43;;;;;;;14.38;8.50;;;10.90;99.90;;;;;;5071880;28;20051;-69
2022/10/23 03:46:11;;;;;;;13.30;7.93;;;10.90;99.90;;;;;;5053854;28;20072;-68
2022/10/23 03:48:37;;;;;;;13.20;9.02;;;10.90;99.90;;;;;;5070974;28;20468;-68
2022/10/23 03:51:06;;;;;;;10.45;7.28;;;10.90;99.90;;;;;;5071863;28;20041;-68
2022/10/23 03:53:32;;;;;;;14.98;9.38;;;10.90;99.90;;;;;;5070747;28;20040;-68
2022/10/23 03:55:57;;;;;;;14.45;9.02;;;10.80;99.90;;;;;;5070428;28;20124;-68
2022/10/23 03:58:23;;;;;;;12.88;8.65;;;10.90;99.90;;;;;;5071998;28;20033;-68
2022/10/23 04:00:49;;;;;;;12.63;9.07;;;10.80;99.90;;;;;;5071941;28;20059;-68
2022/10/23 04:03:14;;;;;;;12.80;8.93;;;10.80;99.90;;;;;;5071921;28;20444;-68
2022/10/23 04:05:41;;;;;;;15.75;8.63;;;10.80;99.90;;;;;;5070429;28;20101;-68
2022/10/23 04:08:07;;;;;;;15.75;8.88;;;10.80;99.90;;;;;;5069956;28;20044;-68
2022/10/23 04:10:32;;;;;;;15.75;9.02;;;10.80;99.90;;;;;;5070520;28;20046;-68
2022/10/23 04:12:58;;;;;;;18.17;8.48;;;10.80;99.90;;;;;;5071611;28;20041;-68
2022/10/23 04:15:24;;;;;;;16.60;8.20;;;10.80;99.90;;;;;;5070428;28;20516;-68
2022/10/23 04:17:49;;;;;;;10.55;7.95;;;10.70;99.90;;;;;;5070450;28;20086;-68
2022/10/23 04:20:15;;;;;;;19.55;8.90;;;10.70;99.90;;;;;;5070559;28;20401;-68
2022/10/23 04:22:40;;;;;;;14.98;8.32;;;10.80;99.90;;;;;;5070184;28;20115;-68
2022/10/23 04:25:06;;;;;;;13.45;9.20;;;10.70;99.90;;;;;;5069504;28;20044;-68
2022/10/23 04:27:33;;;;;;;14.00;8.93;;;10.70;99.90;;;;;;5070088;28;20047;-68
2022/10/23 04:29:58;;;;;;;14.50;8.32;;;10.70;99.90;;;;;;5071437;28;20088;-68
2022/10/23 04:32:24;;;;;;;14.13;8.80;;;10.70;99.90;;;;;;5071740;28;20505;-68
2022/10/23 04:34:50;;;;;;;12.32;9.43;;;10.70;99.90;;;;;;5071151;28;20040;-68
2022/10/23 04:37:16;;;;;;;17.52;8.68;;;10.70;99.90;;;;;;5069936;28;20036;-68
2022/10/23 04:39:41;;;;;;;14.07;8.38;;;10.60;99.90;;;;;;5071364;28;20119;-68
2022/10/23 04:42:07;;;;;;;15.70;8.40;;;10.70;99.90;;;;;;5071605;28;20076;-68
2022/10/23 04:44:32;;;;;;;13.77;8.60;;;10.70;99.90;;;;;;5071027;28;20036;-67
2022/10/23 04:46:58;;;;;;;12.68;8.65;;;10.70;99.90;;;;;;5071367;28;20393;-68
2022/10/23 04:49:23;;;;;;;15.15;8.25;;;10.70;99.90;;;;;;5070010;28;20124;-68
2022/10/23 04:51:49;;;;;;;11.32;8.30;;;10.70;99.90;;;;;;5071430;28;20447;-68
2022/10/23 04:54:14;;;;;;;14.85;9.35;;;10.60;99.90;;;;;;5071108;28;20047;-68
2022/10/23 04:56:40;;;;;;;13.35;8.75;;;10.60;99.90;;;;;;5069791;28;20412;-68
2022/10/23 04:59:06;;;;;;;13.98;8.98;;;10.60;99.90;;;;;;5071242;28;20083;-68
2022/10/23 05:01:31;;;;;;;14.13;8.82;;;10.60;99.90;;;;;;5071085;28;20083;-68
2022/10/23 05:03:57;;;;;;;17.42;8.30;;;10.60;99.90;;;;;;5070960;28;20039;-68
2022/10/23 05:06:22;;;;;;;16.48;8.35;;;10.60;99.90;;;;;;5071109;28;20111;-68
2022/10/23 05:08:48;;;;;;;16.67;9.25;;;10.60;99.90;;;;;;5071068;28;20397;-68
2022/10/23 05:11:13;;;;;;;14.35;9.20;;;10.60;99.90;;;;;;5069700;28;20047;-68
2022/10/23 05:13:39;;;;;;;16.45;8.93;;;10.60;99.90;;;;;;5071153;28;20170;-68
2022/10/23 05:16:04;;;;;;;16.42;8.80;;;10.50;99.90;;;;;;5071083;28;20037;-68
2022/10/23 05:18:36;;;;;;;15.45;8.45;;;10.50;99.90;;;;;;5071124;28;20044;-68
2022/10/23 05:21:25;;;;;;;17.20;9.35;;;10.50;99.90;;;;;;5074721;28;20056;-68
2022/10/23 05:23:52;;;;;;;17.75;8.70;;;10.60;99.90;;;;;;5074172;28;20044;-68
2022/10/23 05:26:17;;;;;;;16.08;8.57;;;10.50;99.90;;;;;;5056733;28;20051;-68
2022/10/23 05:28:43;;;;;;;13.90;9.00;;;10.50;99.90;;;;;;5074524;28;20033;-68
2022/10/23 05:31:08;;;;;;;20.00;8.95;;;10.60;99.90;;;;;;5073600;28;20048;-68
2022/10/23 05:33:35;;;;;;;11.80;8.63;;;10.50;99.90;;;;;;5072950;28;20262;-68
2022/10/23 05:36:01;;;;;;;13.70;8.55;;;10.50;99.90;;;;;;5074122;28;20036;-68
2022/10/23 05:38:29;;;;;;;17.02;8.88;;;10.50;99.90;;;;;;5074495;28;20045;-68
2022/10/23 05:40:54;;;;;;;17.77;9.63;;;10.50;99.90;;;;;;5073073;28;20052;-68
2022/10/23 05:43:20;;;;;;;17.88;8.45;;;10.60;99.90;;;;;;5074201;28;20036;-68
2022/10/23 05:45:46;;;;;;;14.55;8.80;;;10.50;99.90;;;;;;5072641;28;20381;-68
2022/10/23 05:48:14;;;;;;;17.80;9.15;;;10.60;99.90;;;;;;5074305;28;20390;-68
2022/10/23 05:50:40;;;;;;;15.02;8.57;;;10.50;99.90;;;;;;5073033;28;20040;-68
2022/10/23 05:53:05;;;;;;;17.23;9.10;;;10.50;99.90;;;;;;5074435;28;20041;-67
2022/10/23 05:55:32;;;;;;;16.20;9.70;;;10.60;99.90;;;;;;5073937;28;20047;-68
2022/10/23 05:58:00;;;;;;;17.67;9.45;;;10.60;99.90;;;;;;5074231;28;20032;-68
2022/10/23 06:00:26;;;;;;;16.20;9.05;;;10.60;99.90;;;;;;5072597;28;20381;-68
2022/10/23 06:02:51;;;;;;;14.80;9.55;;;10.60;99.90;;;;;;5074014;28;20036;-68
2022/10/23 06:05:17;;;;;;;11.85;8.43;;;10.50;99.90;;;;;;5073491;28;20037;-68
2022/10/23 06:07:42;;;;;;;17.08;8.80;;;10.60;99.90;;;;;;5073787;28;20044;-68
2022/10/23 06:10:08;;;;;;;17.08;8.73;;;10.60;99.90;;;;;;5073925;28;20174;-68
2022/10/23 06:12:33;;;;;;;16.75;9.57;;;10.60;99.90;;;;;;5074020;28;20040;-67
2022/10/23 06:14:59;;;;;;;18.90;8.70;;;10.60;99.90;;;;;;5073739;28;20374;-67
2022/10/23 06:17:25;;;;;;;12.10;8.63;;;10.60;99.90;;;;;;5072225;28;20037;-67
2022/10/23 06:19:51;;;;;;;15.20;8.75;;;10.60;99.90;;;;;;5072957;28;20043;-67
2022/10/23 06:22:17;;;;;;;16.70;9.15;;;10.60;99.90;;;;;;5070608;28;20029;-68
2022/10/23 06:24:42;;;;;;;20.05;9.25;;;10.60;99.90;;;;;;5070082;28;20028;-68
2022/10/23 06:27:08;;;;;;;14.90;8.88;;;10.60;99.90;;;;;;5072839;28;20400;-68
2022/10/23 06:29:33;;;;;;;14.75;8.88;;;10.60;99.90;;;;;;5072662;28;20106;-68
2022/10/23 06:31:59;;;;;;;15.10;9.52;;;10.60;99.90;;;;;;5072126;28;20032;-68
2022/10/23 06:34:24;;;;;;;13.38;8.52;;;10.70;99.90;;;;;;5072441;28;20508;-68
2022/10/23 06:36:50;;;;;;;18.48;9.27;;;10.70;99.90;;;;;;5073141;28;20397;-68
2022/10/23 06:39:15;;;;;;;17.90;8.60;;;10.70;99.90;;;;;;5073464;28;20447;-68
2022/10/23 06:41:43;;;;;;;14.70;8.50;;;10.70;99.90;;;;;;5071689;28;20040;-72
2022/10/23 06:44:10;;;;;;;14.27;7.75;;;10.70;99.90;;;;;;5071503;28;20492;-72
2022/10/23 06:46:35;;;;;;;12.27;8.23;;;10.70;99.90;;;;;;5071712;28;20081;-72
2022/10/23 06:49:01;;;;;;;17.08;9.05;;;10.70;99.90;;;;;;5071602;28;20489;-68
2022/10/23 06:51:28;;;;;;;16.60;8.50;;;10.70;99.90;;;;;;5073210;28;20036;-68
2022/10/23 06:53:55;;;;;;;14.98;8.32;;;10.80;99.90;;;;;;5072610;28;20044;-68
2022/10/23 06:56:21;;;;;;;13.52;8.55;;;10.80;99.90;;;;;;5072843;28;20392;-68
2022/10/23 06:58:47;;;;;;;12.15;8.13;;;10.80;99.90;;;;;;5071461;28;20075;-68
2022/10/23 07:01:15;;;;;;;12.65;7.57;;;10.80;99.90;;;;;;5072692;28;20047;-68
2022/10/23 07:03:41;;;;;;;13.93;8.48;;;10.80;99.90;;;;;;5072888;28;20048;-68
2022/10/23 07:06:08;;;;;;;12.90;8.75;;;10.90;99.90;;;;;;5072110;28;20041;-68
2022/10/23 07:08:35;;;;;;;15.77;8.02;;;10.90;99.90;;;;;;5071842;28;20036;-68
2022/10/23 07:11:09;;;;;;;18.33;8.20;;;10.90;99.90;;;;;;5071698;28;20055;-68
2022/10/23 07:13:37;;;;;;;15.25;8.23;;;10.90;99.90;;;;;;5069379;28;20043;-68
2022/10/23 07:16:20;;;;;;;16.33;8.68;;;10.90;99.90;;;;;;5071540;28;20112;-68
2022/10/23 07:18:47;;;;;;;17.20;8.13;;;11.00;99.90;;;;;;5070719;28;20040;-68
2022/10/23 07:21:12;;;;;;;18.35;8.38;;;11.00;99.90;;;;;;5072022;28;20044;-68
2022/10/23 07:23:38;;;;;;;11.20;7.18;;;11.00;99.90;;;;;;5072310;28;20447;-68
2022/10/23 07:26:09;;;;;;;15.70;8.27;;;11.00;99.90;;;;;;5072101;28;20033;-68
2022/10/23 07:28:35;;;;;;;15.00;7.97;;;11.00;99.90;;;;;;5072610;28;20043;-68
2022/10/23 07:31:01;;;;;;;15.32;7.68;;;11.10;99.90;;;;;;5071079;28;20561;-68
2022/10/23 07:33:27;;;;;;;13.25;8.18;;;11.10;99.90;;;;;;5072247;28;20044;-68
2022/10/23 07:35:52;;;;;;;18.55;8.23;;;11.10;99.90;;;;;;5070438;28;20051;-68
2022/10/23 07:38:18;;;;;;;21.25;7.95;;;11.10;99.90;;;;;;5071844;28;20404;-69
2022/10/23 07:40:44;;;;;;;17.77;8.02;;;11.20;99.90;;;;;;5072259;28;20044;-68
2022/10/23 07:43:09;;;;;;;14.77;8.20;;;11.20;99.90;;;;;;5070253;28;20493;-71
2022/10/23 07:45:35;;;;;;;18.50;7.80;;;11.30;99.90;;;;;;5070682;28;20075;-68
2022/10/23 07:48:01;;;;;;;15.75;7.85;;;11.30;99.90;;;;;;5070595;28;20046;-68
2022/10/23 07:50:26;;;;;;;14.65;7.90;;;11.30;99.90;;;;;;5053805;28;20062;-68
2022/10/23 07:52:52;;;;;;;13.13;8.07;;;11.30;99.90;;;;;;5070619;28;20467;-68
2022/10/23 07:55:17;;;;;;;13.55;7.07;;;11.40;99.90;;;;;;5071862;28;20044;-68
2022/10/23 07:57:43;;;;;;;13.07;7.60;;;11.40;99.90;;;;;;5071996;28;20042;-68
2022/10/23 08:00:10;;;;;;;14.02;7.45;;;11.40;99.90;;;;;;5071574;28;20090;-67
2022/10/23 08:02:35;;;;;;;11.52;7.50;;;11.50;99.90;;;;;;5070742;28;20040;-68
2022/10/23 08:05:01;;;;;;;17.08;7.15;;;11.50;99.90;;;;;;5071762;28;20098;-67
2022/10/23 08:07:26;;;;;;;15.32;6.90;;;11.50;99.90;;;;;;5071445;28;20040;-68
2022/10/23 08:09:52;;;;;;;16.35;8.13;;;11.50;99.90;;;;;;5071325;28;20043;-68
2022/10/23 08:12:17;;;;;;;14.65;7.78;;;11.60;99.90;;;;;;5071120;28;20032;-68
2022/10/23 08:14:43;;;;;;;13.40;7.60;;;11.60;99.90;;;;;;5069579;28;20219;-68
2022/10/23 08:17:09;;;;;;;14.23;7.82;;;11.60;99.90;;;;;;5071167;28;20062;-68
2022/10/23 08:19:35;;;;;;;13.13;7.45;;;11.70;99.90;;;;;;5071529;28;20201;-68
2022/10/23 08:22:00;;;;;;;18.75;7.88;;;11.70;99.90;;;;;;5069815;28;20052;-68
2022/10/23 08:24:26;;;;;;;14.40;7.93;;;11.70;99.90;;;;;;5071078;28;20036;-68
2022/10/23 08:26:52;;;;;;;12.07;7.28;;;11.70;99.90;;;;;;5069759;28;20036;-68
2022/10/23 08:29:17;;;;;;;14.27;8.23;;;11.80;99.90;;;;;;5069384;28;20036;-68
2022/10/23 08:31:43;;;;;;;9.57;6.60;;;11.80;99.90;;;;;;5068158;28;20036;-68
2022/10/23 08:34:08;;;;;;;15.07;6.72;;;11.80;99.90;;;;;;5070654;28;20036;-68
2022/10/23 08:36:35;;;;;;;13.63;7.18;;;11.90;99.90;;;;;;5069752;28;20063;-68
2022/10/23 08:39:01;;;;;;;13.13;7.18;;;12.00;99.90;;;;;;5053024;28;20048;-71
2022/10/23 08:41:37;;;;;;;12.85;7.65;;;12.00;99.90;;;;;;5070578;28;20037;-68
2022/10/23 08:44:08;;;;;;;10.48;5.90;;;12.00;99.90;;;;;;5069864;28;20044;-68
2022/10/23 08:46:43;;;;;;;10.13;6.22;;;12.10;99.90;;;;;;5069408;28;20055;-68
2022/10/23 08:49:35;;;;;;;12.63;6.30;;;12.20;99.90;;;;;;5071592;28;20047;-68
2022/10/23 08:52:14;;;;;;;13.38;6.68;;;12.20;99.90;;;;;;5070200;28;20118;-68
2022/10/23 08:54:53;;;;;;;13.20;7.13;;;12.30;99.90;;;;;;5072296;28;20501;-68
2022/10/23 08:57:22;;;;;;;12.65;6.80;;;12.30;99.90;;;;;;5074754;28;20051;-68
2022/10/23 08:59:56;;;;;;;14.75;6.60;;;12.50;99.90;;;;;;5073156;28;20036;-68
2022/10/23 09:02:24;;;;;;;14.35;5.65;;;12.50;99.90;;;;;;5074820;28;20064;-68
2022/10/23 09:04:52;;;;;;;12.95;6.50;;;12.60;99.90;;;;;;5074378;28;20110;-68
2022/10/23 09:07:38;;;;;;;15.45;6.32;;;12.60;99.90;;;;;;5073153;28;20033;-68
2022/10/23 09:10:21;;;;;;;10.55;6.57;;;12.70;99.90;;;;;;5073720;28;20040;-68
2022/10/23 09:12:47;;;;;;;11.73;6.30;;;12.70;99.90;;;;;;5071666;28;20043;-68
2022/10/23 09:15:22;;;;;;;12.18;6.72;;;12.80;99.90;;;;;;5072467;28;20052;-68
2022/10/23 09:17:54;;;;;;;12.95;5.82;;;12.90;99.90;;;;;;5070845;28;20045;-68
2022/10/23 09:20:25;;;;;;;9.32;5.32;;;12.90;99.90;;;;;;5074553;28;20040;-68
2022/10/23 09:22:57;;;;;;;8.05;5.57;;;13.00;99.90;;;;;;5073458;28;20439;-68
2022/10/23 09:25:28;;;;;;;7.22;5.00;;;13.00;99.90;;;;;;5071513;28;20055;-68
2022/10/23 09:27:56;;;;;;;12.05;5.93;;;13.00;99.90;;;;;;5071786;28;20046;-75
2022/10/23 09:30:37;;;;;;;8.98;6.03;;;13.10;99.90;;;;;;5056825;28;20044;-75
2022/10/23 09:33:22;;;;;;;9.07;6.03;;;13.10;99.90;;;;;;5073938;28;20068;-74
2022/10/23 09:36:01;;;;;;;12.68;5.50;;;13.20;99.90;;;;;;5056981;28;20040;-77
2022/10/23 09:38:46;;;;;;;14.23;5.60;;;13.20;99.90;;;;;;5073461;28;20044;-69
2022/10/23 09:41:29;;;;;;;8.65;4.97;;;13.30;99.90;;;;;;5074381;28;20089;-69
2022/10/23 09:44:16;;;;;;;10.43;5.45;;;13.30;99.90;;;;;;5073918;28;20056;-69
2022/10/23 09:46:48;;;;;;;11.63;5.75;;;13.40;99.90;;;;;;5073046;28;20493;-69
2022/10/23 09:49:29;;;;;;;11.48;5.38;;;13.40;99.90;;;;;;5074443;28;20663;-69
2022/10/23 09:51:57;;;;;;;8.57;4.88;;;13.50;99.90;;;;;;5072993;28;20051;-69
2022/10/23 09:54:23;;;;;;;10.27;5.25;;;13.50;99.90;;;;;;5072392;28;20127;-69
2022/10/23 09:56:49;;;;;;;12.48;4.63;;;13.60;99.90;;;;;;5072746;28;20152;-69
2022/10/23 09:59:21;;;;;;;9.98;5.25;;;13.60;99.90;;;;;;5073956;28;20052;-69
2022/10/23 10:01:50;;;;;;;9.98;5.07;;;13.60;99.90;;;;;;5073430;28;20102;-69
2022/10/23 10:04:16;;;;;;;11.95;5.32;;;13.70;99.90;;;;;;5072140;28;20115;-73
2022/10/23 10:06:42;;;;;;;11.50;4.95;;;13.70;99.90;;;;;;5072685;28;20429;-70
2022/10/23 10:09:13;;;;;;;7.13;5.10;;;13.70;99.90;;;;;;5072623;28;20033;-70
2022/10/23 10:12:12;;;;;;;22.50;5.80;;;13.80;99.90;;;;;;5072345;28;20044;-70
2022/10/23 10:14:46;;;;;;;10.40;5.10;;;13.90;99.90;;;;;;5071869;28;20036;-70
2022/10/23 10:17:50;;;;;;;13.98;4.90;;;13.90;99.90;;;;;;5073193;28;20043;-69
2022/10/23 10:20:31;;;;;;;10.40;5.13;;;13.90;99.90;;;;;;5070556;28;20039;-69
2022/10/23 10:23:06;;;;;;;8.10;4.75;;;14.00;99.90;;;;;;5069430;28;20032;-69
2022/10/23 10:25:40;;;;;;;12.73;4.90;;;14.10;99.90;;;;;;5071591;28;20070;-70
2022/10/23 10:28:30;;;;;;;17.05;4.75;;;14.10;99.90;;;;;;5073244;28;20032;-70
2022/10/23 10:31:14;;;;;;;7.72;5.00;;;14.20;99.90;;;;;;5070452;28;20040;-70
2022/10/23 10:33:42;;;;;;;7.22;4.53;;;14.20;99.90;;;;;;5069410;28;20169;-70
2022/10/23 10:36:22;;;;;;;10.77;4.70;;;14.30;99.90;;;;;;5072723;28;20068;-69
2022/10/23 10:38:51;;;;;;;5.85;4.28;;;14.30;99.90;;;;;;5073582;28;20034;-69
2022/10/23 10:41:48;;;;;;;8.23;4.68;;;14.30;99.90;;;;;;5071450;28;20068;-75
2022/10/23 10:44:39;;;;;;;8.63;4.72;;;14.40;99.90;;;;;;5072858;28;20047;-70
2022/10/23 10:47:22;;;;;;;10.88;4.68;;;14.40;99.90;;;;;;5072617;28;20041;-70
2022/10/23 10:50:18;;;;;;;7.03;4.30;;;14.40;99.90;;;;;;5073172;28;20033;-70
2022/10/23 10:53:10;;;;;;;6.97;4.90;;;14.50;99.90;;;;;;5072993;28;20028;-69
2022/10/23 10:55:45;;;;;;;11.18;4.63;;;14.50;99.90;;;;;;5072270;28;20504;-70
2022/10/23 10:58:46;;;;;;;8.52;4.53;;;14.60;99.90;;;;;;5073093;28;20047;-74
2022/10/23 11:01:25;;;;;;;7.35;4.78;;;14.60;99.90;;;;;;5071518;28;20488;-74
2022/10/23 11:04:16;;;;;;;11.20;4.32;;;14.60;99.90;;;;;;5071324;28;20036;-74
2022/10/23 11:06:46;;;;;;;9.43;4.10;;;14.70;99.90;;;;;;5071343;28;20028;-75
2022/10/23 11:09:20;;;;;;;8.05;4.03;;;14.70;99.90;;;;;;5072667;28;20563;-75
2022/10/23 11:11:46;;;;;;;8.18;4.05;;;14.70;99.90;;;;;;5071191;28;20129;-75
2022/10/23 11:14:23;;;;;;;6.85;3.60;;;14.70;99.90;;;;;;5071071;28;20255;-70
2022/10/23 11:16:58;;;;;;;5.40;3.60;;;14.70;99.90;;;;;;5071430;28;20037;-69
2022/10/23 11:19:39;;;;;;;7.00;3.80;;;14.70;99.90;;;;;;5072486;28;20055;-68
2022/10/23 11:22:10;;;;;;;5.97;3.60;;;14.70;99.90;;;;;;5071085;28;20052;-68
2022/10/23 11:25:05;;;;;;;8.40;4.30;;;14.80;99.90;;;;;;5087685;28;20041;-68
2022/10/23 11:28:04;;;;;;;7.20;3.53;;;14.80;99.90;;;;;;5072294;28;20392;-68
2022/10/23 11:30:47;;;;;;;7.90;3.78;;;14.80;99.90;;;;;;5071354;28;20102;-68
2022/10/23 11:33:24;;;;;;;;;;;14.80;99.90;;;;;;5072854;28;20087;-74
2022/10/23 11:36:02;;;;;;;8.20;3.20;;;14.90;99.90;;;;;;5053958;28;19920;-68
2022/10/23 11:38:31;;;;;;;5.07;3.15;;;14.90;99.90;;;;;;5072275;28;20040;-69
2022/10/23 11:41:25;;;;;;;7.07;3.03;;;15.00;99.90;;;;;;5070855;28;20044;-69
2022/10/23 11:43:56;;;;;;;9.30;3.70;;;15.10;99.90;;;;;;5071287;28;20101;-69
2022/10/23 11:46:24;;;;;;;6.47;3.10;;;15.00;99.90;;;;;;5071012;28;20206;-68
2022/10/23 11:48:51;;;;;;;6.68;3.03;;;15.00;99.90;;;;;;5070600;28;20116;-68
2022/10/23 11:51:29;;;;;;;4.93;2.97;;;15.00;99.90;;;;;;5072029;28;20048;-68
2022/10/23 11:54:10;;;;;;;6.53;2.85;;;15.00;99.90;;;;;;5070234;28;20044;-68
2022/10/23 11:56:37;;;;;;;7.47;3.20;;;15.00;99.90;;;;;;5070633;28;20045;-68
2022/10/23 11:59:26;;;;;;;6.68;3.17;;;15.00;99.90;;;;;;5071553;28;20033;-69
2022/10/23 12:01:53;;;;;;;6.32;2.67;;;15.10;99.90;;;;;;5072092;28;20055;-68
2022/10/23 12:04:46;;;;;;;7.57;3.08;;;15.10;99.90;;;;;;5071478;28;20400;-68
2022/10/23 12:07:27;;;;;;;7.43;2.63;;;15.10;99.90;;;;;;5070516;28;20037;-68
2022/10/23 12:10:05;;;;;;;4.03;2.77;;;15.10;99.90;;;;;;5070366;28;20046;-68
2022/10/23 12:12:34;;;;;;;6.82;2.58;;;15.10;99.90;;;;;;5070473;28;20044;-68
2022/10/23 12:15:08;;;;;;;7.20;2.03;;;15.20;99.90;;;;;;5071655;28;20560;-68
2022/10/23 12:17:37;;;;;;;11.68;2.55;;;15.20;99.90;;;;;;5071937;28;20432;-68
2022/10/23 12:20:11;;;;;;;3.38;2.30;;;15.20;99.90;;;;;;5071417;28;20523;-68
2022/10/23 12:22:56;;;;;;;7.45;2.75;;;15.30;99.90;;;;;;5070679;28;20546;-68
2022/10/23 12:25:58;;;;;;;3.80;2.42;;;15.30;99.90;;;;;;5070235;28;20378;-69
2022/10/23 12:29:07;;;;;;;10.60;4.00;;;15.30;99.90;;;;;;5070765;28;20047;-68
2022/10/23 12:31:50;;;;;;;6.97;2.83;;;15.30;99.90;;;;;;5072226;28;20035;-68
2022/10/23 12:34:28;;;;;;;3.13;2.17;;;15.40;99.90;;;;;;5072558;28;20048;-68
2022/10/23 12:37:29;;;;;;;6.00;2.47;;;15.40;99.90;;;;;;5073605;28;20036;-68
2022/10/23 12:39:57;;;;;;;4.90;2.30;;;15.40;99.90;;;;;;5088909;28;20052;-68
2022/10/23 12:42:26;;;;;;;7.07;2.50;;;15.50;99.90;;;;;;5073617;28;20047;-68
2022/10/23 12:45:04;;;;;;;3.42;2.55;;;15.40;99.90;;;;;;5075055;28;20126;-69
2022/10/23 12:47:30;;;;;;;6.70;2.38;;;15.50;99.90;;;;;;5074129;28;20041;-69
2022/10/23 12:49:56;;;;;;;5.18;2.65;;;15.50;99.90;;;;;;5075595;28;20041;-69
2022/10/23 12:52:23;;;;;;;7.00;2.55;;;15.40;99.90;;;;;;5075206;28;20043;-69
2022/10/23 12:54:49;;;;;;;8.05;2.30;;;15.40;99.90;;;;;;5073794;28;20162;-69
2022/10/23 12:57:21;;;;;;;8.38;2.45;;;15.40;99.90;;;;;;5073862;28;20123;-69
2022/10/23 12:59:49;;;;;;;3.90;2.20;;;15.40;99.90;;;;;;5057052;28;20051;-69
2022/10/23 13:02:26;;;;;;;4.22;2.60;;;15.40;99.90;;;;;;5073775;28;20178;-69